sensor_id;sensor_type;location;lat;lon;timestamp;pressure;altitude;pressure_sealevel;temperature;humidity
35888;BME280;21990;42.540;23.496;2023-03-18T00:01:59;93887.31;;;-1.26;86.62
35888;BME280;21990;42.540;23.496;2023-03-18T00:04:26;93893.63;;;-1.25;85.90
35888;BME280;21990;42.540;23.496;2023-03-18T00:06:51;93887.88;;;-1.31;85.64
35888;BME280;21990;42.540;23.496;2023-03-18T00:09:17;93884.81;;;-1.33;86.48
35888;BME280;21990;42.540;23.496;2023-03-18T00:11:42;93878.16;;;-1.57;86.28
35888;BME280;21990;42.540;23.496;2023-03-18T00:14:08;93885.94;;;-1.77;86.25
35888;BME280;21990;42.540;23.496;2023-03-18T00:16:38;93876.47;;;-1.89;86.55
35888;BME280;21990;42.540;23.496;2023-03-18T00:19:04;93877.66;;;-1.77;87.14
35888;BME280;21990;42.540;23.496;2023-03-18T00:21:31;93871.44;;;-1.69;86.61
35888;BME280;21990;42.540;23.496;2023-03-18T00:23:56;93869.91;;;-1.70;86.85
35888;BME280;21990;42.540;23.496;2023-03-18T00:26:24;93873.53;;;-1.60;87.39
35888;BME280;21990;42.540;23.496;2023-03-18T00:28:52;93870.75;;;-1.60;87.33
35888;BME280;21990;42.540;23.496;2023-03-18T00:31:18;93872.75;;;-1.61;87.55
35888;BME280;21990;42.540;23.496;2023-03-18T00:33:45;93866.09;;;-1.63;87.76
35888;BME280;21990;42.540;23.496;2023-03-18T00:36:11;93874.72;;;-1.61;86.22
35888;BME280;21990;42.540;23.496;2023-03-18T00:38:46;93861.03;;;-1.65;85.88
35888;BME280;21990;42.540;23.496;2023-03-18T00:41:15;93862.59;;;-1.64;86.08
35888;BME280;21990;42.540;23.496;2023-03-18T00:43:43;93861.94;;;-1.68;86.11
35888;BME280;21990;42.540;23.496;2023-03-18T00:46:22;93854.09;;;-1.69;86.50
35888;BME280;21990;42.540;23.496;2023-03-18T00:48:48;93855.44;;;-1.74;86.37
35888;BME280;21990;42.540;23.496;2023-03-18T00:51:15;93853.00;;;-1.72;86.57
35888;BME280;21990;42.540;23.496;2023-03-18T00:53:43;93846.72;;;-1.72;86.55
35888;BME280;21990;42.540;23.496;2023-03-18T00:56:11;93844.38;;;-1.74;85.78
35888;BME280;21990;42.540;23.496;2023-03-18T00:58:37;93830.41;;;-1.92;86.47
35888;BME280;21990;42.540;23.496;2023-03-18T01:01:04;93836.91;;;-1.86;87.03
35888;BME280;21990;42.540;23.496;2023-03-18T01:03:30;93837.56;;;-1.82;86.70
35888;BME280;21990;42.540;23.496;2023-03-18T01:05:56;93838.34;;;-1.81;86.69
35888;BME280;21990;42.540;23.496;2023-03-18T01:08:22;93828.44;;;-1.92;86.51
35888;BME280;21990;42.540;23.496;2023-03-18T01:10:49;93833.06;;;-1.88;86.14
35888;BME280;21990;42.540;23.496;2023-03-18T01:13:14;93830.16;;;-1.85;85.42
35888;BME280;21990;42.540;23.496;2023-03-18T01:15:40;93831.06;;;-1.88;85.42
35888;BME280;21990;42.540;23.496;2023-03-18T01:18:08;93834.72;;;-1.91;86.13
35888;BME280;21990;42.540;23.496;2023-03-18T01:20:37;93840.25;;;-1.91;86.06
35888;BME280;21990;42.540;23.496;2023-03-18T01:23:04;93837.41;;;-2.00;86.29
35888;BME280;21990;42.540;23.496;2023-03-18T01:25:30;93830.31;;;-2.01;85.86
35888;BME280;21990;42.540;23.496;2023-03-18T01:27:56;93828.56;;;-1.95;86.57
35888;BME280;21990;42.540;23.496;2023-03-18T01:30:22;93821.50;;;-1.96;86.00
35888;BME280;21990;42.540;23.496;2023-03-18T01:32:48;93816.47;;;-2.10;86.17
35888;BME280;21990;42.540;23.496;2023-03-18T01:35:14;93812.34;;;-2.06;86.18
35888;BME280;21990;42.540;23.496;2023-03-18T01:37:40;93815.34;;;-2.13;85.73
35888;BME280;21990;42.540;23.496;2023-03-18T01:40:09;93814.16;;;-2.37;86.24
35888;BME280;21990;42.540;23.496;2023-03-18T01:42:35;93820.59;;;-2.40;86.94
35888;BME280;21990;42.540;23.496;2023-03-18T01:45:14;93825.00;;;-2.43;87.09
35888;BME280;21990;42.540;23.496;2023-03-18T01:47:42;93826.63;;;-2.32;87.90
35888;BME280;21990;42.540;23.496;2023-03-18T01:50:10;93822.97;;;-2.29;87.81
35888;BME280;21990;42.540;23.496;2023-03-18T01:52:37;93811.06;;;-2.26;87.85
35888;BME280;21990;42.540;23.496;2023-03-18T01:55:11;93811.72;;;-2.22;87.58
35888;BME280;21990;42.540;23.496;2023-03-18T01:57:38;93817.66;;;-2.11;87.76
35888;BME280;21990;42.540;23.496;2023-03-18T02:00:08;93808.28;;;-2.14;88.18
35888;BME280;21990;42.540;23.496;2023-03-18T02:02:35;93796.22;;;-2.07;88.50
35888;BME280;21990;42.540;23.496;2023-03-18T02:05:04;93800.06;;;-2.05;89.16
35888;BME280;21990;42.540;23.496;2023-03-18T02:07:34;93801.94;;;-2.02;89.29
35888;BME280;21990;42.540;23.496;2023-03-18T02:10:04;93801.72;;;-1.95;89.17
35888;BME280;21990;42.540;23.496;2023-03-18T02:12:34;93794.31;;;-1.98;89.70
35888;BME280;21990;42.540;23.496;2023-03-18T02:15:05;93789.00;;;-1.92;89.88
35888;BME280;21990;42.540;23.496;2023-03-18T02:17:33;93798.25;;;-1.86;89.50
35888;BME280;21990;42.540;23.496;2023-03-18T02:20:23;93803.63;;;-1.82;89.88
35888;BME280;21990;42.540;23.496;2023-03-18T02:22:57;93802.44;;;-1.81;89.84
35888;BME280;21990;42.540;23.496;2023-03-18T02:25:50;93799.66;;;-1.81;89.81
35888;BME280;21990;42.540;23.496;2023-03-18T02:28:22;93795.13;;;-1.75;89.45
35888;BME280;21990;42.540;23.496;2023-03-18T02:30:55;93793.13;;;-1.75;89.75
35888;BME280;21990;42.540;23.496;2023-03-18T02:33:23;93800.41;;;-1.68;90.15
35888;BME280;21990;42.540;23.496;2023-03-18T02:35:56;93791.84;;;-1.61;90.43
35888;BME280;21990;42.540;23.496;2023-03-18T02:38:25;93794.34;;;-1.54;90.29
35888;BME280;21990;42.540;23.496;2023-03-18T02:40:52;93797.75;;;-1.50;90.31
35888;BME280;21990;42.540;23.496;2023-03-18T02:43:24;93794.09;;;-1.47;89.76
35888;BME280;21990;42.540;23.496;2023-03-18T02:48:26;93791.94;;;-1.52;89.91
35888;BME280;21990;42.540;23.496;2023-03-18T02:50:55;93796.06;;;-1.48;89.88
35888;BME280;21990;42.540;23.496;2023-03-18T02:53:21;93784.22;;;-1.57;89.62
35888;BME280;21990;42.540;23.496;2023-03-18T02:55:47;93788.25;;;-1.49;89.84
35888;BME280;21990;42.540;23.496;2023-03-18T02:58:12;93783.81;;;-1.47;90.11
35888;BME280;21990;42.540;23.496;2023-03-18T03:00:38;93782.78;;;-1.40;89.98
35888;BME280;21990;42.540;23.496;2023-03-18T03:03:04;93782.41;;;-1.51;89.58
35888;BME280;21990;42.540;23.496;2023-03-18T03:05:32;93779.91;;;-1.58;89.98
35888;BME280;21990;42.540;23.496;2023-03-18T03:07:58;93784.25;;;-1.70;89.53
35888;BME280;21990;42.540;23.496;2023-03-18T03:10:23;93788.97;;;-1.79;89.71
35888;BME280;21990;42.540;23.496;2023-03-18T03:12:49;93780.66;;;-1.79;90.06
35888;BME280;21990;42.540;23.496;2023-03-18T03:15:15;93788.00;;;-1.64;89.63
35888;BME280;21990;42.540;23.496;2023-03-18T03:17:41;93786.06;;;-1.54;89.39
35888;BME280;21990;42.540;23.496;2023-03-18T03:20:07;93777.50;;;-1.47;88.50
35888;BME280;21990;42.540;23.496;2023-03-18T03:22:34;93790.63;;;-1.38;88.82
35888;BME280;21990;42.540;23.496;2023-03-18T03:25:00;93788.69;;;-1.51;88.80
35888;BME280;21990;42.540;23.496;2023-03-18T03:27:29;93788.81;;;-1.54;88.84
35888;BME280;21990;42.540;23.496;2023-03-18T03:29:55;93791.06;;;-1.40;89.38
35888;BME280;21990;42.540;23.496;2023-03-18T03:32:21;93799.13;;;-1.33;89.50
35888;BME280;21990;42.540;23.496;2023-03-18T03:34:47;93787.31;;;-1.24;89.98
35888;BME280;21990;42.540;23.496;2023-03-18T03:37:13;93794.13;;;-1.16;89.84
35888;BME280;21990;42.540;23.496;2023-03-18T03:39:39;93802.91;;;-1.18;89.67
35888;BME280;21990;42.540;23.496;2023-03-18T03:42:04;93804.94;;;-1.09;90.16
35888;BME280;21990;42.540;23.496;2023-03-18T03:44:30;93805.25;;;-1.07;90.10
35888;BME280;21990;42.540;23.496;2023-03-18T03:46:56;93796.38;;;-1.02;90.00
35888;BME280;21990;42.540;23.496;2023-03-18T03:49:21;93800.22;;;-1.00;91.10
35888;BME280;21990;42.540;23.496;2023-03-18T03:51:47;93797.72;;;-1.07;90.55
35888;BME280;21990;42.540;23.496;2023-03-18T03:54:13;93799.13;;;-1.33;90.67
35888;BME280;21990;42.540;23.496;2023-03-18T03:56:40;93795.25;;;-1.35;91.11
35888;BME280;21990;42.540;23.496;2023-03-18T03:59:07;93800.91;;;-1.39;91.32
35888;BME280;21990;42.540;23.496;2023-03-18T04:01:32;93794.94;;;-1.37;91.06
35888;BME280;21990;42.540;23.496;2023-03-18T04:03:59;93798.91;;;-1.38;91.58
35888;BME280;21990;42.540;23.496;2023-03-18T04:06:24;93806.28;;;-1.35;91.82
35888;BME280;21990;42.540;23.496;2023-03-18T04:08:50;93805.53;;;-1.36;92.33
35888;BME280;21990;42.540;23.496;2023-03-18T04:11:16;93808.88;;;-1.19;92.77
35888;BME280;21990;42.540;23.496;2023-03-18T04:13:42;93806.16;;;-1.10;92.39
35888;BME280;21990;42.540;23.496;2023-03-18T04:16:07;93810.19;;;-1.02;92.43
35888;BME280;21990;42.540;23.496;2023-03-18T04:18:33;93817.59;;;-0.99;92.63
35888;BME280;21990;42.540;23.496;2023-03-18T04:20:59;93824.06;;;-0.93;92.20
35888;BME280;21990;42.540;23.496;2023-03-18T04:23:24;93829.16;;;-0.91;92.55
35888;BME280;21990;42.540;23.496;2023-03-18T04:25:51;93828.16;;;-1.07;92.22
35888;BME280;21990;42.540;23.496;2023-03-18T04:28:17;93825.97;;;-1.12;92.11
35888;BME280;21990;42.540;23.496;2023-03-18T04:30:43;93831.63;;;-1.15;92.07
35888;BME280;21990;42.540;23.496;2023-03-18T04:33:08;93838.06;;;-1.18;92.80
35888;BME280;21990;42.540;23.496;2023-03-18T04:35:34;93836.13;;;-1.30;92.89
35888;BME280;21990;42.540;23.496;2023-03-18T04:38:00;93849.03;;;-1.27;92.93
35888;BME280;21990;42.540;23.496;2023-03-18T04:40:26;93841.00;;;-1.34;93.21
35888;BME280;21990;42.540;23.496;2023-03-18T04:42:51;93845.19;;;-1.30;93.27
35888;BME280;21990;42.540;23.496;2023-03-18T04:45:17;93849.75;;;-1.36;92.93
35888;BME280;21990;42.540;23.496;2023-03-18T04:47:44;93856.38;;;-1.33;92.78
35888;BME280;21990;42.540;23.496;2023-03-18T04:50:12;93853.78;;;-1.28;93.53
35888;BME280;21990;42.540;23.496;2023-03-18T04:52:39;93853.56;;;-1.21;93.64
35888;BME280;21990;42.540;23.496;2023-03-18T04:55:05;93857.47;;;-1.09;93.40
35888;BME280;21990;42.540;23.496;2023-03-18T04:57:31;93860.88;;;-1.05;93.60
35888;BME280;21990;42.540;23.496;2023-03-18T04:59:59;93863.81;;;-1.00;93.21
35888;BME280;21990;42.540;23.496;2023-03-18T05:02:26;93864.03;;;-0.94;92.92
35888;BME280;21990;42.540;23.496;2023-03-18T05:04:52;93860.63;;;-0.98;92.55
35888;BME280;21990;42.540;23.496;2023-03-18T05:07:17;93854.75;;;-1.00;92.89
35888;BME280;21990;42.540;23.496;2023-03-18T05:09:43;93860.50;;;-0.94;92.80
35888;BME280;21990;42.540;23.496;2023-03-18T05:12:13;93851.19;;;-1.10;92.60
35888;BME280;21990;42.540;23.496;2023-03-18T05:14:40;93856.84;;;-1.13;93.75
35888;BME280;21990;42.540;23.496;2023-03-18T05:17:06;93846.78;;;-1.20;93.91
35888;BME280;21990;42.540;23.496;2023-03-18T05:19:32;93860.41;;;-1.04;94.17
35888;BME280;21990;42.540;23.496;2023-03-18T05:21:57;93854.44;;;-1.02;93.50
35888;BME280;21990;42.540;23.496;2023-03-18T05:24:23;93856.38;;;-0.90;93.48
35888;BME280;21990;42.540;23.496;2023-03-18T05:26:49;93849.47;;;-0.85;93.52
35888;BME280;21990;42.540;23.496;2023-03-18T05:29:14;93859.84;;;-0.99;92.99
35888;BME280;21990;42.540;23.496;2023-03-18T05:31:40;93851.47;;;-1.08;93.24
35888;BME280;21990;42.540;23.496;2023-03-18T05:34:07;93853.19;;;-1.01;93.61
35888;BME280;21990;42.540;23.496;2023-03-18T05:36:33;93849.59;;;-0.89;93.83
35888;BME280;21990;42.540;23.496;2023-03-18T05:38:59;93854.50;;;-0.93;93.36
35888;BME280;21990;42.540;23.496;2023-03-18T05:41:24;93853.69;;;-1.03;93.15
35888;BME280;21990;42.540;23.496;2023-03-18T05:43:50;93859.78;;;-0.86;94.03
35888;BME280;21990;42.540;23.496;2023-03-18T05:46:15;93859.63;;;-0.82;94.17
35888;BME280;21990;42.540;23.496;2023-03-18T05:48:41;93860.41;;;-0.82;93.55
35888;BME280;21990;42.540;23.496;2023-03-18T05:51:07;93867.84;;;-0.70;93.57
35888;BME280;21990;42.540;23.496;2023-03-18T05:53:33;93867.31;;;-0.86;93.43
35888;BME280;21990;42.540;23.496;2023-03-18T05:55:59;93864.91;;;-0.97;93.42
35888;BME280;21990;42.540;23.496;2023-03-18T05:58:25;93867.56;;;-0.93;93.90
35888;BME280;21990;42.540;23.496;2023-03-18T06:00:56;93863.81;;;-0.78;94.23
35888;BME280;21990;42.540;23.496;2023-03-18T06:03:23;93869.59;;;-0.85;93.96
35888;BME280;21990;42.540;23.496;2023-03-18T06:05:50;93871.28;;;-0.87;94.40
35888;BME280;21990;42.540;23.496;2023-03-18T06:08:17;93873.91;;;-0.84;94.08
35888;BME280;21990;42.540;23.496;2023-03-18T06:10:42;93873.34;;;-1.01;93.85
35888;BME280;21990;42.540;23.496;2023-03-18T06:13:10;93870.00;;;-0.96;95.05
35888;BME280;21990;42.540;23.496;2023-03-18T06:15:36;93867.94;;;-0.82;94.81
35888;BME280;21990;42.540;23.496;2023-03-18T06:18:03;93869.78;;;-0.79;94.55
35888;BME280;21990;42.540;23.496;2023-03-18T06:20:29;93866.06;;;-0.85;94.63
35888;BME280;21990;42.540;23.496;2023-03-18T06:22:55;93868.44;;;-0.75;95.54
35888;BME280;21990;42.540;23.496;2023-03-18T06:25:21;93866.88;;;-0.76;95.42
35888;BME280;21990;42.540;23.496;2023-03-18T06:27:48;93867.09;;;-0.70;95.84
35888;BME280;21990;42.540;23.496;2023-03-18T06:30:14;93863.06;;;-0.69;95.27
35888;BME280;21990;42.540;23.496;2023-03-18T06:32:40;93860.16;;;-0.66;95.67
35888;BME280;21990;42.540;23.496;2023-03-18T06:35:06;93872.22;;;-0.60;96.13
35888;BME280;21990;42.540;23.496;2023-03-18T06:37:32;93856.41;;;-0.50;96.38
35888;BME280;21990;42.540;23.496;2023-03-18T06:39:59;93847.66;;;-0.49;95.96
35888;BME280;21990;42.540;23.496;2023-03-18T06:42:24;93857.38;;;-0.44;95.26
35888;BME280;21990;42.540;23.496;2023-03-18T06:44:50;93851.78;;;-0.53;95.55
35888;BME280;21990;42.540;23.496;2023-03-18T06:47:19;93847.31;;;-0.51;95.98
35888;BME280;21990;42.540;23.496;2023-03-18T06:49:49;93841.69;;;-0.38;96.70
35888;BME280;21990;42.540;23.496;2023-03-18T06:52:16;93843.06;;;-0.42;96.19
35888;BME280;21990;42.540;23.496;2023-03-18T06:54:42;93840.91;;;-0.38;95.83
35888;BME280;21990;42.540;23.496;2023-03-18T06:57:08;93846.34;;;-0.26;96.30
35888;BME280;21990;42.540;23.496;2023-03-18T06:59:34;93843.03;;;-0.03;97.62
35888;BME280;21990;42.540;23.496;2023-03-18T07:02:00;93840.94;;;0.29;98.05
35888;BME280;21990;42.540;23.496;2023-03-18T07:04:26;93845.25;;;0.57;99.06
35888;BME280;21990;42.540;23.496;2023-03-18T07:06:52;93841.09;;;0.71;97.08
35888;BME280;21990;42.540;23.496;2023-03-18T07:09:18;93846.00;;;0.94;96.69
35888;BME280;21990;42.540;23.496;2023-03-18T07:11:44;93841.00;;;1.34;97.70
35888;BME280;21990;42.540;23.496;2023-03-18T07:14:11;93836.56;;;1.70;96.76
35888;BME280;21990;42.540;23.496;2023-03-18T07:16:39;93829.59;;;3.08;100.00
35888;BME280;21990;42.540;23.496;2023-03-18T07:19:05;93827.13;;;3.54;95.44
35888;BME280;21990;42.540;23.496;2023-03-18T07:21:31;93827.28;;;4.49;96.94
35888;BME280;21990;42.540;23.496;2023-03-18T07:23:57;93829.72;;;5.80;96.07
35888;BME280;21990;42.540;23.496;2023-03-18T07:26:23;93821.44;;;5.65;85.30
35888;BME280;21990;42.540;23.496;2023-03-18T07:28:49;93812.22;;;5.85;85.88
35888;BME280;21990;42.540;23.496;2023-03-18T07:31:14;93820.69;;;6.27;83.04
35888;BME280;21990;42.540;23.496;2023-03-18T07:33:41;93819.00;;;6.46;78.92
35888;BME280;21990;42.540;23.496;2023-03-18T07:36:06;93813.88;;;6.39;80.16
35888;BME280;21990;42.540;23.496;2023-03-18T07:38:32;93813.28;;;6.66;73.15
35888;BME280;21990;42.540;23.496;2023-03-18T07:40:58;93817.56;;;6.56;73.54
35888;BME280;21990;42.540;23.496;2023-03-18T07:43:24;93817.28;;;6.54;75.23
35888;BME280;21990;42.540;23.496;2023-03-18T07:45:50;93815.22;;;6.49;72.04
35888;BME280;21990;42.540;23.496;2023-03-18T07:48:16;93810.84;;;6.43;75.91
35888;BME280;21990;42.540;23.496;2023-03-18T07:50:41;93813.28;;;6.24;72.07
35888;BME280;21990;42.540;23.496;2023-03-18T07:53:07;93817.97;;;6.01;74.16
35888;BME280;21990;42.540;23.496;2023-03-18T07:55:32;93814.09;;;5.93;75.42
35888;BME280;21990;42.540;23.496;2023-03-18T07:57:58;93803.97;;;6.01;76.10
35888;BME280;21990;42.540;23.496;2023-03-18T08:00:24;93810.66;;;6.15;73.88
35888;BME280;21990;42.540;23.496;2023-03-18T08:02:50;93791.16;;;6.68;75.51
35888;BME280;21990;42.540;23.496;2023-03-18T08:05:17;93798.66;;;6.99;69.74
35888;BME280;21990;42.540;23.496;2023-03-18T08:07:44;93784.19;;;7.18;72.33
35888;BME280;21990;42.540;23.496;2023-03-18T08:10:10;93784.75;;;7.60;71.88
35888;BME280;21990;42.540;23.496;2023-03-18T08:12:37;93786.31;;;7.73;68.79
35888;BME280;21990;42.540;23.496;2023-03-18T08:15:03;93795.72;;;7.64;67.58
35888;BME280;21990;42.540;23.496;2023-03-18T08:17:29;93791.38;;;7.46;64.46
35888;BME280;21990;42.540;23.496;2023-03-18T08:19:55;93794.47;;;7.65;67.83
35888;BME280;21990;42.540;23.496;2023-03-18T08:22:20;93790.13;;;7.81;69.59
35888;BME280;21990;42.540;23.496;2023-03-18T08:24:46;93785.81;;;8.13;66.97
35888;BME280;21990;42.540;23.496;2023-03-18T08:27:11;93786.03;;;8.21;66.92
35888;BME280;21990;42.540;23.496;2023-03-18T08:29:37;93793.94;;;8.39;63.03
35888;BME280;21990;42.540;23.496;2023-03-18T08:32:02;93795.47;;;8.40;62.35
35888;BME280;21990;42.540;23.496;2023-03-18T08:34:28;93789.09;;;8.17;62.50
35888;BME280;21990;42.540;23.496;2023-03-18T08:36:53;93787.31;;;8.20;61.30
35888;BME280;21990;42.540;23.496;2023-03-18T08:39:19;93794.47;;;8.32;59.86
35888;BME280;21990;42.540;23.496;2023-03-18T08:41:46;93780.88;;;8.64;68.92
35888;BME280;21990;42.540;23.496;2023-03-18T08:44:13;93783.38;;;8.73;59.91
35888;BME280;21990;42.540;23.496;2023-03-18T08:46:39;93773.41;;;8.83;59.74
35888;BME280;21990;42.540;23.496;2023-03-18T08:49:06;93772.38;;;8.80;56.35
35888;BME280;21990;42.540;23.496;2023-03-18T08:51:32;93780.84;;;8.75;52.83
35888;BME280;21990;42.540;23.496;2023-03-18T08:53:58;93780.38;;;8.54;58.01
35888;BME280;21990;42.540;23.496;2023-03-18T08:56:24;93784.50;;;8.36;54.32
35888;BME280;21990;42.540;23.496;2023-03-18T08:58:50;93786.25;;;8.50;57.61
35888;BME280;21990;42.540;23.496;2023-03-18T09:01:17;93789.88;;;8.34;54.27
35888;BME280;21990;42.540;23.496;2023-03-18T09:03:44;93791.41;;;7.96;53.92
35888;BME280;21990;42.540;23.496;2023-03-18T09:06:09;93794.72;;;8.00;57.25
35888;BME280;21990;42.540;23.496;2023-03-18T09:08:35;93787.31;;;8.03;60.16
35888;BME280;21990;42.540;23.496;2023-03-18T09:11:01;93790.41;;;8.05;59.65
35888;BME280;21990;42.540;23.496;2023-03-18T09:13:26;93792.94;;;8.03;59.08
35888;BME280;21990;42.540;23.496;2023-03-18T09:15:52;93781.47;;;7.95;58.35
35888;BME280;21990;42.540;23.496;2023-03-18T09:18:18;93788.34;;;7.94;56.80
35888;BME280;21990;42.540;23.496;2023-03-18T09:20:44;93799.81;;;8.02;58.65
35888;BME280;21990;42.540;23.496;2023-03-18T09:23:11;93796.75;;;8.05;59.30
35888;BME280;21990;42.540;23.496;2023-03-18T09:25:38;93791.66;;;8.04;57.01
35888;BME280;21990;42.540;23.496;2023-03-18T09:28:07;93796.78;;;7.78;54.69
35888;BME280;21990;42.540;23.496;2023-03-18T09:30:32;93796.00;;;7.83;54.57
35888;BME280;21990;42.540;23.496;2023-03-18T09:32:58;93808.50;;;7.87;55.13
35888;BME280;21990;42.540;23.496;2023-03-18T09:35:24;93809.75;;;7.86;51.32
35888;BME280;21990;42.540;23.496;2023-03-18T09:37:49;93807.72;;;7.70;49.62
35888;BME280;21990;42.540;23.496;2023-03-18T09:40:30;93804.38;;;7.49;48.72
35888;BME280;21990;42.540;23.496;2023-03-18T09:54:25;93793.69;;;7.87;54.60
35888;BME280;21990;42.540;23.496;2023-03-18T09:56:54;93782.72;;;8.17;54.16
35888;BME280;21990;42.540;23.496;2023-03-18T09:59:46;93790.59;;;8.51;54.72
35888;BME280;21990;42.540;23.496;2023-03-18T10:02:21;93794.13;;;8.69;51.42
35888;BME280;21990;42.540;23.496;2023-03-18T10:04:56;93790.28;;;8.77;48.53
35888;BME280;21990;42.540;23.496;2023-03-18T10:07:28;93792.81;;;8.81;50.64
35888;BME280;21990;42.540;23.496;2023-03-18T10:10:04;93798.34;;;9.03;50.26
35888;BME280;21990;42.540;23.496;2023-03-18T10:12:33;93798.38;;;8.97;48.39
35888;BME280;21990;42.540;23.496;2023-03-18T10:15:55;93803.44;;;9.10;52.16
35888;BME280;21990;42.540;23.496;2023-03-18T10:18:17;93810.50;;;9.28;54.48
35888;BME280;21990;42.540;23.496;2023-03-18T10:20:56;93807.03;;;9.05;47.50
35888;BME280;21990;42.540;23.496;2023-03-18T10:26:29;93800.09;;;9.12;48.24
35888;BME280;21990;42.540;23.496;2023-03-18T10:34:44;93816.09;;;8.70;47.93
35888;BME280;21990;42.540;23.496;2023-03-18T10:40:15;93811.16;;;8.98;52.08
35888;BME280;21990;42.540;23.496;2023-03-18T10:42:42;93803.81;;;8.79;49.88
35888;BME280;21990;42.540;23.496;2023-03-18T10:45:22;93808.94;;;8.75;51.03
35888;BME280;21990;42.540;23.496;2023-03-18T10:48:54;93803.50;;;8.88;52.72
35888;BME280;21990;42.540;23.496;2023-03-18T10:53:41;93796.25;;;9.15;54.48
35888;BME280;21990;42.540;23.496;2023-03-18T10:56:12;93790.25;;;9.40;53.13
35888;BME280;21990;42.540;23.496;2023-03-18T10:58:40;93790.47;;;9.48;48.25
35888;BME280;21990;42.540;23.496;2023-03-18T11:01:08;93779.03;;;9.35;48.26
35888;BME280;21990;42.540;23.496;2023-03-18T11:06:16;93786.44;;;9.73;48.13
35888;BME280;21990;42.540;23.496;2023-03-18T11:08:46;93778.41;;;9.88;50.89
35888;BME280;21990;42.540;23.496;2023-03-18T11:11:21;93792.44;;;9.94;48.76
35888;BME280;21990;42.540;23.496;2023-03-18T11:13:55;93801.34;;;9.63;47.63
35888;BME280;21990;42.540;23.496;2023-03-18T11:17:03;93794.41;;;9.28;47.52
35888;BME280;21990;42.540;23.496;2023-03-18T11:19:38;93790.72;;;8.98;46.15
35888;BME280;21990;42.540;23.496;2023-03-18T11:22:09;93795.44;;;8.62;47.85
35888;BME280;21990;42.540;23.496;2023-03-18T11:24:37;93779.03;;;8.77;50.25
35888;BME280;21990;42.540;23.496;2023-03-18T11:29:58;93807.25;;;9.18;48.48
35888;BME280;21990;42.540;23.496;2023-03-18T11:32:30;93792.38;;;9.23;48.18
35888;BME280;21990;42.540;23.496;2023-03-18T11:35:06;93778.56;;;9.25;48.59
35888;BME280;21990;42.540;23.496;2023-03-18T11:37:39;93773.19;;;9.27;49.49
35888;BME280;21990;42.540;23.496;2023-03-18T11:40:18;93772.66;;;9.29;48.30
35888;BME280;21990;42.540;23.496;2023-03-18T11:42:46;93768.31;;;9.28;50.06
35888;BME280;21990;42.540;23.496;2023-03-18T11:47:48;93780.69;;;9.54;46.25
35888;BME280;21990;42.540;23.496;2023-03-18T11:50:19;93767.13;;;9.59;47.33
35888;BME280;21990;42.540;23.496;2023-03-18T11:53:03;93760.09;;;9.76;47.00
35888;BME280;21990;42.540;23.496;2023-03-18T11:55:38;93785.97;;;9.69;44.10
35888;BME280;21990;42.540;23.496;2023-03-18T12:00:48;93768.59;;;9.30;44.55
35888;BME280;21990;42.540;23.496;2023-03-18T12:03:36;93771.06;;;9.39;46.45
35888;BME280;21990;42.540;23.496;2023-03-18T12:06:43;93795.19;;;9.23;43.73
35888;BME280;21990;42.540;23.496;2023-03-18T12:09:28;93784.53;;;9.05;43.43
35888;BME280;21990;42.540;23.496;2023-03-18T12:12:07;93790.50;;;8.90;45.37
35888;BME280;21990;42.540;23.496;2023-03-18T12:14:44;93797.94;;;8.77;46.36
35888;BME280;21990;42.540;23.496;2023-03-18T12:17:32;93800.72;;;8.82;46.67
35888;BME280;21990;42.540;23.496;2023-03-18T12:23:21;93793.53;;;8.92;46.45
35888;BME280;21990;42.540;23.496;2023-03-18T12:26:01;93793.81;;;8.83;43.87
35888;BME280;21990;42.540;23.496;2023-03-18T12:28:31;93789.38;;;8.36;43.04
35888;BME280;21990;42.540;23.496;2023-03-18T12:36:30;93792.38;;;8.54;46.04
35888;BME280;21990;42.540;23.496;2023-03-18T12:39:23;93794.44;;;8.37;45.48
35888;BME280;21990;42.540;23.496;2023-03-18T12:47:19;93790.13;;;7.70;45.34
35888;BME280;21990;42.540;23.496;2023-03-18T12:52:36;93786.03;;;7.48;50.00
35888;BME280;21990;42.540;23.496;2023-03-18T12:55:25;93788.59;;;7.63;50.15
35888;BME280;21990;42.540;23.496;2023-03-18T12:58:03;93782.47;;;7.64;50.23
35888;BME280;21990;42.540;23.496;2023-03-18T13:01:06;93785.53;;;7.83;51.39
35888;BME280;21990;42.540;23.496;2023-03-18T13:03:37;93798.53;;;7.75;52.28
35888;BME280;21990;42.540;23.496;2023-03-18T13:06:28;93791.41;;;7.85;56.39
35888;BME280;21990;42.540;23.496;2023-03-18T13:12:12;93779.84;;;7.28;60.00
35888;BME280;21990;42.540;23.496;2023-03-18T13:19:59;93788.78;;;7.32;58.56
35888;BME280;21990;42.540;23.496;2023-03-18T13:25:38;93788.84;;;7.71;58.90
35888;BME280;21990;42.540;23.496;2023-03-18T13:31:19;93778.13;;;8.02;58.61
35888;BME280;21990;42.540;23.496;2023-03-18T13:37:04;93774.81;;;8.21;54.67
35888;BME280;21990;42.540;23.496;2023-03-18T13:42:27;93771.47;;;8.28;52.02
35888;BME280;21990;42.540;23.496;2023-03-18T13:48:04;93780.44;;;8.15;52.90
35888;BME280;21990;42.540;23.496;2023-03-18T13:50:34;93771.25;;;8.09;53.48
35888;BME280;21990;42.540;23.496;2023-03-18T13:53:03;93775.34;;;7.80;52.78
35888;BME280;21990;42.540;23.496;2023-03-18T13:55:33;93756.97;;;7.85;53.18
35888;BME280;21990;42.540;23.496;2023-03-18T14:00:41;93762.81;;;8.20;52.73
35888;BME280;21990;42.540;23.496;2023-03-18T14:03:16;93755.69;;;8.36;53.20
35888;BME280;21990;42.540;23.496;2023-03-18T14:05:47;93764.56;;;8.51;52.72
35888;BME280;21990;42.540;23.496;2023-03-18T14:13:44;93754.06;;;8.57;51.28
35888;BME280;21990;42.540;23.496;2023-03-18T14:16:11;93756.09;;;8.62;50.35
35888;BME280;21990;42.540;23.496;2023-03-18T14:18:37;93759.91;;;8.65;50.40
35888;BME280;21990;42.540;23.496;2023-03-18T14:21:04;93758.38;;;8.69;51.39
35888;BME280;21990;42.540;23.496;2023-03-18T14:23:44;93759.63;;;8.74;52.09
35888;BME280;21990;42.540;23.496;2023-03-18T14:26:25;93761.66;;;8.79;52.47
35888;BME280;21990;42.540;23.496;2023-03-18T14:29:41;93765.75;;;8.78;50.39
35888;BME280;21990;42.540;23.496;2023-03-18T14:39:43;93766.91;;;7.91;51.72
35888;BME280;21990;42.540;23.496;2023-03-18T14:42:29;93764.38;;;7.71;51.86